5G2 weather

Indian Lake Airport
Central City, Pennsylvania, United States

Public forecast

Using degrees Fahrenheit for public forecast. Weather courtesy of forecast.io.

METAR (pilot weather report)

Closest report is Somerset County Airport, 7.8 nm (14.4 km) W. Retrieved 2019/05/21 03:35 UTC (22 minutes ago):

K2G9 210335Z AUTO 30010G15KT 10SM OVC043 12/07 A3002 RMK AO2

TAF (pilot weather forecast)

Closest forecast is John Murtha Johnstown Cambria County Airport, 15.7 nm (29.1 km) N. Retrieved 2019/05/21 00:00 UTC (4 hours ago):

TAF KJST 202357Z 2100/2124 29013G21KT P6SM SCT045 BKN070 FM210200 30012KT P6SM BKN025 FM211100 31010G23KT P6SM SCT030 FM211600 32012G18KT P6SM FEW250